Latest Coastal Weather Observations for Williamtown

IDN60701

Issued at 8:42 am EST Saturday 30 May 2015 (issued every 10 minutes, with the page automatically refreshed every 10 minutes)

About coastal observations | Map of coastal stations | Coastal observations for NSW | Marine services | Other Formats
Station Details ID: 061078 Name: WILLIAMTOWN RAAF Lat: -32.79 Lon: 151.84 Height: 9.0 m
Data from the previous 72 hours. | See also: Recent months at Williamtown
Date/Time
EST
Temp

°C
Wind Pressure Rain
since 9am
mm
Weather Cloud Vis
km
Sea
Height
m
Swell
Dir
 
Speed
knots
Gust
knots
hPa Trend Height
m
Period
s
Dir
30/08:30am 14.5 WNW 4 5 1022.7 - 0.8 - - 10 - - - -
30/08:00am 12.3 W 1 4 1022.7 - 0.8 - - 10 - - - -
30/07:30am 11.1 CALM 0 0 1022.5 - 0.8 - - 10 - - - -
30/07:00am 11.3 CALM 0 0 1022.3 - 0.8 - - 10 - - - -
30/06:48am 11.1 CALM 0 0 1022.2 - 0.8 - - 10 - - - -
30/06:30am 11.2 CALM 0 0 1022.2 - 0.8 - - 6 - - - -
30/06:21am 11.4 CALM 0 0 1022.1 - 0.8 - - 10 - - - -
30/06:00am 11.7 WNW 1 3 1022.2 F 0.8 - Cloudy 1 - - - -
30/05:54am 11.8 WNW 3 4 1022.1 - 0.8 - - 4 - - - -
30/05:53am 11.9 WNW 3 4 1022.1 - 0.8 - - 7 - - - -
30/05:30am 11.4 WNW 3 4 1022.0 - 0.8 - - 6 - - - -
30/05:21am 11.8 WNW 3 3 1022.0 - 0.8 - - 5 - - - -
30/05:00am 12.6 NW 3 4 1021.5 - 0.8 - - 10 - - - -
30/04:30am 12.7 WNW 5 6 1021.7 - 0.8 - - 10 - - - -
30/04:00am 12.9 WNW 6 8 1022.0 - 0.8 - - 10 - - - -
30/03:30am 12.9 WNW 6 7 1021.9 - 0.8 - - 10 - - - -
30/03:00am 12.7 WNW 5 7 1022.1 R 0.8 - Cloudy 10 - - - -
30/02:30am 12.2 WNW 5 6 1022.1 - 0.6 - - 10 - - - -
30/02:00am 12.7 WNW 5 5 1022.0 - 0.6 - - 10 - - - -
30/01:30am 12.7 WNW 5 6 1022.1 - 0.6 - - 10 - - - -
30/01:00am 13.4 NW 5 6 1022.3 - 0.6 - - 10 - - - -
30/12:30am 13.3 WNW 7 8 1022.7 - 0.6 - - 10 - - - -
30/12:00am 13.4 NW 8 9 1022.7 R 0.6 - Mostly cloudy 10 - - - -
 
Date/Time
EST
Temp

°C
Wind Pressure Rain
since 9am
mm
Weather Cloud Vis
km
Sea
Height
m
Swell
Dir
 
Speed
knots
Gust
knots
hPa Trend Height
m
Period
s
Dir
29/11:30pm 13.8 WNW 8 9 1022.8 - 0.6 - - 10 - - - -
29/11:00pm 13.4 WNW 7 8 1023.0 - 0.6 - - 10 - - - -
29/10:30pm 13.3 NW 7 7 1022.6 - 0.6 - - 10 - - - -
29/10:00pm 12.7 NW 6 7 1022.9 - 0.6 - - 10 - - - -
29/09:30pm 11.7 NW 1 5 1022.7 - 0.6 - - 10 - - - -
29/09:00pm 12.9 CALM 0 0 1022.7 R 0.6 - - 10 - - - -
29/08:30pm 13.8 CALM 0 2 1022.7 - 0.6 - - 10 - - - -
29/08:00pm 13.4 WNW 5 5 1022.8 - 0.6 - Partly cloudy 10 - - - -
29/07:30pm 14.0 WSW 4 4 1022.6 - 0.6 - Partly cloudy 10 - - - -
29/07:00pm 13.6 SSW 3 4 1022.5 - 0.6 - Partly cloudy 10 - - - -
29/06:30pm 14.7 WNW 4 5 1022.1 - 0.6 - - 10 - - - -
29/06:00pm 15.9 NNW 5 5 1021.5 F 0.6 - - 10 - - - -
29/05:30pm 16.8 NW 5 8 1021.5 - 0.6 - Partly cloudy 10 - - - -
29/05:00pm 17.5 WNW 7 8 1021.4 - 0.6 - Partly cloudy 10 - - - -
29/04:30pm 18.1 WNW 8 12 1021.0 - 0.6 - Partly cloudy 10 - - - -
29/04:00pm 18.6 WNW 5 7 1020.7 - 0.6 - Partly cloudy 10 - - - -
29/03:30pm 19.0 WNW 5 6 1020.7 - 0.6 - Partly cloudy 10 - - - -
29/03:00pm 19.0 WNW 5 7 1020.5 R 0.6 - Cloudy 10 - - - -
29/02:30pm 18.8 NW 7 10 1020.6 - 0.6 - Cloudy 10 - - - -
29/02:00pm 18.4 NW 9 14 1020.4 - 0.6 - Cloudy 10 - - - -
29/01:30pm 18.0 NW 9 13 1020.6 - 0.6 - Partly cloudy 10 - - - -
29/01:00pm 17.7 NW 8 10 1020.7 - 0.6 - Partly cloudy 10 - - - -
29/12:30pm 17.5 WNW 8 10 1021.1 - 0.4 Rain Partly cloudy 10 - - - -
29/12:00pm 17.4 NW 14 18 1021.5 R 0.2 - Cloudy 10 - - - -
29/11:30am 18.3 NW 12 15 1021.7 - 0.2 Rain Cloudy 10 - - - -
29/11:00am 17.9 NW 12 17 1022.0 - 0.2 - Mostly clear 10 - - - -
29/10:30am 18.0 NW 12 17 1022.0 - 0.2 Rain Mostly clear 10 - - - -
29/10:00am 17.1 NW 9 11 1022.1 - 0.2 - Mostly clear 10 - - - -
29/09:30am 16.3 NW 9 11 1022.3 - 0.0 Rain Partly cloudy 10 - - - -
29/09:00am 15.7 NW 7 9 1022.2 R 0.0 - Cloudy 10 - - - -
29/08:30am 15.3 WNW 7 9 1022.2 - 0.0 Showers Partly cloudy 10 - - - -
29/08:00am 14.7 NNW 6 7 1021.9 - 0.0 - Mostly clear 10 - - - -
29/07:30am 14.6 NW 7 9 1021.6 - 0.0 Showers Partly cloudy 10 - - - -
29/07:00am 13.9 NW 7 8 1021.4 - 0.0 - Cloudy 10 - - - -
29/06:30am 13.8 WNW 6 7 1021.0 - 0.0 Drizzle Partly cloudy 10 - - - -
29/06:00am 14.3 NNW 6 8 1020.3 F 0.0 - Cloudy 10 - - - -
29/05:30am 14.2 NNW 7 8 1019.8 - 0.0 - Partly cloudy 10 - - - -
29/05:00am 14.3 NNW 7 9 1019.7 - 0.0 - - 10 - - - -
29/04:30am 13.4 NW 6 7 1020.0 - 0.0 - - 10 - - - -
29/04:00am 13.3 NW 6 9 1020.2 - 0.0 - - 10 - - - -
29/03:30am 12.9 NW 6 7 1020.3 - 0.0 - - 10 - - - -
29/03:00am 13.3 CALM 0 0 1020.3 F 0.0 - Mostly cloudy 10 - - - -
29/02:30am 13.0 CALM 0 0 1020.6 - 0.0 - - 10 - - - -
29/02:00am 13.6 N 1 5 1020.4 - 0.0 - Partly cloudy 10 - - - -
29/01:30am 14.1 N 5 6 1020.7 - 0.0 - Partly cloudy 10 - - - -
29/01:00am 14.1 NNE 5 7 1020.8 - 0.0 - - 10 - - - -
29/12:30am 14.1 NNE 6 7 1021.0 - 0.0 - - 10 - - - -
29/12:00am 14.4 N 5 7 1021.5 F 0.0 - Cloudy 10 - - - -
 
Date/Time
EST
Temp

°C
Wind Pressure Rain
since 9am
mm
Weather Cloud Vis
km
Sea
Height
m
Swell
Dir
 
Speed
knots
Gust
knots
hPa Trend Height
m
Period
s
Dir
28/11:30pm 14.8 N 5 6 1021.6 - 0.0 - - 10 - - - -
28/11:00pm 14.1 N 3 5 1021.7 - 0.0 - - 10 - - - -
28/10:30pm 13.8 NNE 4 5 1021.9 - 0.0 - - 10 - - - -
28/10:00pm 14.3 NNE 5 5 1022.0 - 0.0 - - 10 - - - -
28/09:30pm 15.9 N 4 5 1021.8 - 0.0 - - 10 - - - -
28/09:00pm 15.2 NNW 7 8 1022.0 F 0.0 - Mostly clear 10 - - - -
28/08:30pm 15.5 NNW 8 9 1022.0 - 0.0 - - 10 - - - -
28/08:00pm 14.5 W 4 4 1022.4 - 0.0 - - 10 - - - -
28/07:30pm 15.2 N 7 9 1021.9 - 0.0 - - 10 - - - -
28/07:00pm 14.0 NNW 5 5 1022.0 - 0.0 - - 10 - - - -
28/06:30pm 15.8 NNW 5 7 1021.9 - 0.0 - - 10 - - - -
28/06:00pm 16.1 NNW 5 6 1021.8 F 0.0 - - 10 - - - -
28/05:30pm 17.0 NNW 6 8 1021.7 - 0.0 - - 10 - - - -
28/05:00pm 18.0 NW 4 5 1021.5 - 0.0 - Partly cloudy 10 - - - -
28/04:30pm 19.2 NNW 5 6 1021.0 - 0.0 - Partly cloudy 10 - - - -
28/04:00pm 19.9 NNW 6 10 1021.1 - 0.0 - Partly cloudy 10 - - - -
28/03:30pm 20.5 NW 6 8 1021.4 - 0.0 - Partly cloudy 10 - - - -
28/03:00pm 20.6 NW 7 10 1021.0 S 0.0 Fine Partly cloudy 40 - - - -
28/02:30pm 21.7 NNW 7 9 1021.0 - 0.0 - - 10 - - - -
28/02:00pm 21.8 NW 8 10 1021.0 - 0.0 - Partly cloudy 10 - - - -
28/01:30pm 21.4 NNW 7 9 1021.3 - 0.0 - - 10 - - - -
28/01:00pm 21.0 NNW 8 12 1021.9 - 0.0 - - 10 - - - -
28/12:30pm 20.7 NNW 7 10 1022.1 - 0.0 - - 10 - - - -
28/12:00pm 20.2 NNW 6 9 1022.6 F 0.0 Fine Mostly clear 40 - - - -
28/11:30am 19.3 NNW 6 9 1023.2 - 0.0 - - 10 - - - -
28/11:00am 18.7 NNW 6 8 1023.6 - 0.0 - - 10 - - - -
28/10:30am 17.2 NNW 7 9 1024.1 - 0.0 - - 10 - - - -
28/10:00am 16.9 NW 8 10 1024.3 - 0.0 - - 10 - - - -
28/09:30am 15.7 NW 7 10 1024.5 - 0.0 - - 10 - - - -
28/09:00am 14.6 NW 6 7 1024.3 R 0.0 Fine Mostly clear 40 - - - -
28/08:30am 14.0 NW 7 8 1024.1 - 0.0 - - 10 - - - -
28/08:00am 12.8 NNW 6 7 1024.0 - 0.0 - - 10 - - - -
28/07:30am 11.1 NNW 5 6 1023.9 - 0.0 - - 10 - - - -
28/07:00am 9.8 NW 6 6 1024.0 - 0.0 - - 10 - - - -
28/06:30am 9.9 NW 5 6 1023.5 - 0.0 - - 10 - - - -
28/06:00am 10.9 NW 4 5 1022.9 F 0.0 Fine Mostly clear 40 - - - -
28/05:30am 11.7 NW 7 8 1022.7 - 0.0 - Partly cloudy 10 - - - -
28/05:00am 11.7 NNW 5 7 1022.7 - 0.0 - Partly cloudy 10 - - - -
28/04:30am 12.0 NW 5 6 1022.8 - 0.0 - Cloudy 10 - - - -
28/04:00am 11.5 NNW 5 6 1022.8 - 0.0 - Cloudy 10 - - - -
28/03:30am 11.6 CALM 0 0 1022.8 - 0.0 - Partly cloudy 10 - - - -
28/03:00am 11.9 CALM 0 0 1022.8 - 0.0 - Cloudy 10 - - - -
28/02:30am 11.1 CALM 0 0 1023.0 - 0.0 - Cloudy 10 - - - -
28/02:00am 10.9 CALM 0 0 1023.2 - 0.0 - Cloudy 10 - - - -
28/01:30am 10.6 NNE 3 4 1023.2 - 0.0 - Partly cloudy 10 - - - -
28/01:00am 10.3 CALM 0 0 1023.4 - 0.0 - - 10 - - - -
28/12:30am 10.9 CALM 0 0 1023.2 - 0.0 - - 10 - - - -
28/12:00am 11.6 NE 4 4 1023.3 - 0.0 - Mostly cloudy 10 - - - -
 
Date/Time
EST
Temp

°C
Wind Pressure Rain
since 9am
mm
Weather Cloud Vis
km
Sea
Height
m
Swell
Dir
 
Speed
knots
Gust
knots
hPa Trend Height
m
Period
s
Dir
27/11:30pm 11.0 CALM 0 0 1023.5 - 0.0 - Partly cloudy 10 - - - -
27/11:00pm 11.3 N 3 4 1023.5 - 0.0 - Partly cloudy 10 - - - -
27/10:30pm 11.5 N 5 6 1023.4 - 0.0 - Partly cloudy 10 - - - -
27/10:00pm 11.8 NNE 3 5 1023.4 - 0.0 - Partly cloudy 10 - - - -
27/09:30pm 12.0 NNE 3 3 1023.4 - 0.0 - - 10 - - - -
27/09:00pm 12.0 N 4 4 1023.5 - 0.0 - Partly cloudy 10 - - - -
27/08:30pm 13.6 NNW 5 5 1023.4 - 0.0 - Partly cloudy 10 - - - -
27/08:00pm 14.1 NNW 5 6 1023.3 - 0.0 - - 10 - - - -
27/07:30pm 15.0 NW 7 9 1023.1 - 0.0 - - 10 - - - -
27/07:00pm 14.6 NNW 7 8 1022.8 - 0.0 - - 10 - - - -
27/06:30pm 14.0 WNW 6 10 1022.8 - 0.0 - Partly cloudy 10 - - - -
27/06:00pm 14.3 NW 5 6 1022.6 - 0.0 - Cloudy 10 - - - -
27/05:30pm 14.6 WNW 8 11 1022.5 - 0.0 - - 10 - - - -
27/05:00pm 14.6 WNW 5 6 1022.3 - 0.0 - - 10 - - - -
27/04:30pm 15.5 WNW 4 6 1022.2 - 0.0 - - 10 - - - -
27/04:00pm 16.3 W 6 7 1022.3 - 0.0 - - 10 - - - -
27/03:30pm 17.6 WNW 9 12 1022.3 - 0.0 - - 10 - - - -
27/03:00pm 19.0 WNW 9 13 1022.4 F 0.0 Smoke Mostly cloudy 40 - - - -
27/02:30pm 18.0 WNW 11 14 1022.3 - 0.0 - - 10 - - - -
27/02:00pm 18.5 WNW 10 14 1022.5 - 0.0 - - 10 - - - -
27/01:30pm 17.9 WNW 10 15 1022.8 - 0.0 - - 10 - - - -
27/01:00pm 18.4 NW 8 10 1023.2 - 0.0 - Mostly clear 10 - - - -
27/12:30pm 17.9 NW 9 13 1023.6 - 0.0 - Mostly clear 10 - - - -
27/12:00pm 18.7 WNW 9 13 1024.0 F 0.0 Fine Partly cloudy 40 - - - -
27/11:30am 18.3 WNW 10 14 1024.4 - 0.0 - Mostly clear 10 - - - -
27/11:00am 17.8 WNW 7 9 1024.8 - 0.0 - Mostly clear 10 - - - -
27/10:30am 16.2 WNW 9 12 1025.2 - 0.0 - Mostly clear 10 - - - -
27/10:00am 15.7 WNW 10 14 1025.5 - 0.0 - Mostly clear 10 - - - -
27/09:30am 14.9 WNW 12 15 1025.6 - 0.0 - Mostly clear 10 - - - -
27/09:00am 14.1 NW 11 15 1025.5 F 0.0 Fine Partly cloudy 40 - - - -

Other Formats:

Comma delimited format used in spreadsheet applications
http://www.bom.gov.au/fwo/IDN60701/IDN60701.94776.axf

JavaScript Object Notation format (JSON) in row-major order
http://www.bom.gov.au/fwo/IDN60701/IDN60701.94776.json